Time;durP1;ratioP1;P1;durP2;ratioP2;P2;SDS_P1;SDS_P2;PMS_P1;PMS_P2;Temp;Humidity;BMP_temperature;BMP_pressure;BME280_temperature;BME280_humidity;BME280_pressure;Samples;Min_cycle;Max_cycle;Signal;HPM_P1;HPM_P2
2023/01/14 00:00:12;;;;;;;4.30;0.65;;;19.80;44.40;;;;;;5108596;28;20058;-55
2023/01/14 00:02:39;;;;;;;1.52;0.40;;;19.80;44.50;;;;;;5108953;28;20093;-55
2023/01/14 00:05:09;;;;;;;3.58;0.50;;;19.80;44.50;;;;;;5108665;28;20590;-57
2023/01/14 00:07:36;;;;;;;1.58;0.30;;;19.90;44.50;;;;;;5108875;28;20054;-55
2023/01/14 00:10:03;;;;;;;4.40;0.30;;;19.80;44.50;;;;;;5108220;28;20035;-57
2023/01/14 00:12:30;;;;;;;2.15;0.40;;;19.80;44.50;;;;;;5106291;28;20359;-56
2023/01/14 00:14:57;;;;;;;1.52;0.20;;;19.80;44.50;;;;;;5108805;28;20039;-56
2023/01/14 00:17:25;;;;;;;1.80;0.25;;;19.80;44.50;;;;;;5108738;28;20039;-55
2023/01/14 00:19:52;;;;;;;1.67;0.43;;;19.80;44.60;;;;;;5108164;28;20096;-53
2023/01/14 00:22:20;;;;;;;2.00;0.30;;;19.80;44.60;;;;;;5108564;28;20083;-54
2023/01/14 00:24:47;;;;;;;5.55;0.88;;;19.80;44.60;;;;;;5108931;28;20411;-55
2023/01/14 00:27:16;;;;;;;4.35;0.50;;;19.80;44.60;;;;;;5108976;28;20039;-57
2023/01/14 00:29:43;;;;;;;4.97;0.57;;;19.80;44.70;;;;;;5108474;28;20581;-57
2023/01/14 00:32:10;;;;;;;2.35;0.20;;;19.80;44.70;;;;;;5108698;28;20074;-59
2023/01/14 00:34:38;;;;;;;1.85;0.20;;;19.80;44.70;;;;;;5108308;28;20188;-56
2023/01/14 00:37:07;;;;;;;1.92;0.30;;;19.80;44.80;;;;;;5108609;28;20043;-57
2023/01/14 00:39:36;;;;;;;2.08;0.35;;;19.80;44.70;;;;;;5108484;28;20048;-56
2023/01/14 00:42:03;;;;;;;1.67;0.20;;;19.80;44.80;;;;;;5108679;28;20035;-57
2023/01/14 00:44:30;;;;;;;0.50;0.10;;;19.80;44.90;;;;;;5090065;28;20534;-55
2023/01/14 00:46:57;;;;;;;3.90;0.45;;;19.80;44.90;;;;;;5108383;28;20157;-56
2023/01/14 00:49:25;;;;;;;2.67;0.63;;;19.80;44.90;;;;;;5108097;28;20138;-57
2023/01/14 00:51:52;;;;;;;2.10;0.57;;;19.80;45.00;;;;;;5108384;28;20064;-55
2023/01/14 00:54:20;;;;;;;5.10;0.47;;;19.80;45.10;;;;;;5108325;28;20036;-55
2023/01/14 00:56:48;;;;;;;5.25;0.40;;;19.80;45.10;;;;;;5108442;28;20047;-54
2023/01/14 00:59:18;;;;;;;0.60;0.20;;;19.80;45.10;;;;;;5089844;28;20044;-57
2023/01/14 01:01:46;;;;;;;1.45;0.13;;;19.80;45.20;;;;;;5108652;28;20134;-54
2023/01/14 01:04:13;;;;;;;3.78;0.40;;;19.80;45.20;;;;;;5089800;28;20047;-56
2023/01/14 01:06:41;;;;;;;0.73;0.40;;;19.80;45.20;;;;;;5106872;28;20048;-52
2023/01/14 01:09:08;;;;;;;2.08;0.20;;;19.80;45.30;;;;;;5102645;28;20045;-56
2023/01/14 01:11:39;;;;;;;2.83;0.32;;;19.80;45.30;;;;;;5106206;28;20039;-56
2023/01/14 01:14:07;;;;;;;1.65;0.20;;;19.80;45.30;;;;;;5086977;28;20040;-56
2023/01/14 01:16:34;;;;;;;3.58;0.20;;;19.80;45.40;;;;;;5089429;28;20144;-57
2023/01/14 01:19:01;;;;;;;0.65;0.10;;;19.80;45.40;;;;;;5107646;28;20083;-57
2023/01/14 01:21:29;;;;;;;3.45;0.22;;;19.80;45.50;;;;;;5088924;28;20047;-58
2023/01/14 01:23:56;;;;;;;1.45;0.17;;;19.80;45.50;;;;;;5088381;28;20155;-58
2023/01/14 01:26:25;;;;;;;2.85;0.75;;;19.80;45.50;;;;;;5106946;28;20042;-57
2023/01/14 01:28:54;;;;;;;0.93;0.20;;;19.80;45.60;;;;;;5106755;28;20122;-54
2023/01/14 01:31:23;;;;;;;1.35;0.10;;;19.80;45.60;;;;;;5106495;28;20047;-53
2023/01/14 01:33:53;;;;;;;1.98;0.10;;;19.80;45.60;;;;;;5072965;28;20165;-57
2023/01/14 01:36:23;;;;;;;3.25;0.45;;;19.80;45.70;;;;;;5090739;28;20096;-67
2023/01/14 01:38:51;;;;;;;2.30;0.68;;;19.80;45.80;;;;;;5103920;28;20778;-57
2023/01/14 01:41:22;;;;;;;1.17;0.10;;;19.80;46.10;;;;;;5082487;28;20044;-57
2023/01/14 01:44:06;;;;;;;2.85;0.20;;;19.80;46.40;;;;;;5104502;28;20123;-62
2023/01/14 01:46:35;;;;;;;1.65;0.20;;;19.90;46.60;;;;;;5089505;28;20128;-62
2023/01/14 01:49:08;;;;;;;5.93;0.43;;;19.80;46.70;;;;;;5075284;28;20047;-62
2023/01/14 01:51:41;;;;;;;2.08;0.63;;;19.90;47.00;;;;;;5105051;28;20039;-63
2023/01/14 01:54:09;;;;;;;6.88;0.70;;;19.90;47.20;;;;;;5104342;28;20044;-62
2023/01/14 01:56:39;;;;;;;2.40;0.20;;;19.90;47.20;;;;;;5105936;28;20035;-62
2023/01/14 01:59:10;;;;;;;7.25;1.10;;;19.90;47.40;;;;;;5084918;28;20051;-62
2023/01/14 02:01:40;;;;;;;5.40;0.15;;;20.00;47.60;;;;;;5105862;28;20043;-62
2023/01/14 02:04:08;;;;;;;1.08;0.32;;;20.00;47.60;;;;;;5105676;28;20043;-62
2023/01/14 02:06:36;;;;;;;1.23;0.20;;;20.00;47.60;;;;;;5106099;28;20147;-62
2023/01/14 02:09:03;;;;;;;4.72;0.10;;;20.00;47.70;;;;;;5102814;28;20050;-61
2023/01/14 02:11:56;;;;;;;3.70;0.40;;;20.10;47.80;;;;;;5104570;28;20044;-61
2023/01/14 02:14:34;;;;;;;3.53;0.20;;;20.10;47.80;;;;;;5106609;28;20047;-61
2023/01/14 02:17:17;;;;;;;0.52;0.40;;;20.10;47.90;;;;;;5105966;28;20059;-61
2023/01/14 02:20:01;;;;;;;1.02;0.10;;;20.10;47.90;;;;;;5088194;28;20060;-61
2023/01/14 02:22:47;;;;;;;6.47;0.40;;;20.10;47.90;;;;;;5081229;28;20690;-60
2023/01/14 02:25:46;;;;;;;4.55;0.93;;;20.20;48.00;;;;;;5088071;28;20047;-61
2023/01/14 02:28:24;;;;;;;5.43;0.10;;;20.20;47.90;;;;;;5093283;28;20827;-61
2023/01/14 02:31:01;;;;;;;3.05;0.40;;;20.20;48.00;;;;;;5087543;28;20044;-62
2023/01/14 02:33:43;;;;;;;4.68;0.10;;;20.20;48.00;;;;;;5088090;28;20096;-61
2023/01/14 02:36:18;;;;;;;0.20;0.00;;;20.30;48.00;;;;;;5085659;28;20155;-59
2023/01/14 02:38:53;;;;;;;0.47;0.10;;;20.30;48.10;;;;;;5079198;28;20063;-60
2023/01/14 02:44:07;;;;;;;3.13;0.47;;;20.30;48.00;;;;;;5083449;28;20075;-59
2023/01/14 02:44:21;;;;;;;1.33;0.10;;;20.30;48.00;;;;;;5087423;28;20058;-57
2023/01/14 02:46:53;;;;;;;0.95;0.10;;;20.30;48.00;;;;;;5087860;28;20066;-57
2023/01/14 02:49:24;;;;;;;1.80;0.10;;;20.30;48.00;;;;;;5087775;28;20063;-59
2023/01/14 02:51:51;;;;;;;3.03;0.05;;;20.30;48.00;;;;;;5105796;28;20051;-58
2023/01/14 02:54:21;;;;;;;3.22;0.10;;;20.30;48.00;;;;;;5087565;28;20047;-58
2023/01/14 02:56:50;;;;;;;2.20;0.10;;;20.30;48.00;;;;;;5105967;28;20048;-59
2023/01/14 02:59:40;;;;;;;5.68;0.15;;;20.30;48.10;;;;;;5086754;28;20035;-58
2023/01/14 03:02:31;;;;;;;1.13;0.10;;;20.30;48.10;;;;;;5086938;28;20070;-56
2023/01/14 03:05:21;;;;;;;3.30;0.10;;;20.30;48.10;;;;;;5086837;28;20416;-57
2023/01/14 03:07:54;;;;;;;2.47;0.10;;;20.30;48.20;;;;;;5086308;28;20048;-58
2023/01/14 03:10:25;;;;;;;2.65;0.10;;;20.30;48.30;;;;;;5086217;28;20050;-59
2023/01/14 03:13:07;;;;;;;5.18;0.43;;;20.20;48.20;;;;;;5086762;28;20047;-57
2023/01/14 03:15:40;;;;;;;3.22;0.10;;;20.30;48.30;;;;;;5083895;28;20052;-58
2023/01/14 03:18:15;;;;;;;1.00;0.30;;;20.20;48.30;;;;;;5087353;28;20093;-59
2023/01/14 03:20:47;;;;;;;1.38;0.10;;;20.30;48.30;;;;;;5087860;28;20040;-58
2023/01/14 03:23:19;;;;;;;2.85;0.10;;;20.20;48.30;;;;;;5087940;28;20443;-58
2023/01/14 03:25:48;;;;;;;0.40;0.17;;;20.20;48.30;;;;;;5106544;28;20504;-58
2023/01/14 03:28:26;;;;;;;2.37;0.10;;;20.20;48.40;;;;;;5088046;28;20118;-58
2023/01/14 03:31:00;;;;;;;0.85;0.10;;;20.20;48.40;;;;;;5088134;28;20039;-59
2023/01/14 03:33:34;;;;;;;1.15;0.13;;;20.20;48.50;;;;;;5089181;28;20074;-57
2023/01/14 03:36:06;;;;;;;1.88;0.10;;;20.20;48.60;;;;;;5110079;28;20060;-58
2023/01/14 03:38:36;;;;;;;0.30;0.10;;;20.20;48.70;;;;;;5108888;28;20132;-58
2023/01/14 03:41:06;;;;;;;0.90;0.08;;;20.20;48.90;;;;;;5108984;28;20091;-58
2023/01/14 03:43:40;;;;;;;1.75;0.10;;;20.20;49.00;;;;;;5108847;28;20171;-58
2023/01/14 03:46:08;;;;;;;3.10;0.22;;;20.20;49.00;;;;;;5108941;28;20055;-54
2023/01/14 03:48:36;;;;;;;2.00;0.15;;;20.20;49.20;;;;;;5108907;28;20573;-57
2023/01/14 03:51:11;;;;;;;2.65;0.73;;;20.20;49.30;;;;;;5109128;28;20152;-58
2023/01/14 03:53:45;;;;;;;2.10;0.10;;;20.20;49.40;;;;;;5110393;28;20128;-55
2023/01/14 03:56:22;;;;;;;0.63;0.00;;;20.20;49.50;;;;;;5110381;28;20108;-56
2023/01/14 03:58:57;;;;;;;1.63;0.10;;;20.20;49.60;;;;;;5105840;28;20093;-56
2023/01/14 04:01:28;;;;;;;1.00;0.10;;;20.20;49.70;;;;;;5110149;28;20048;-55
2023/01/14 04:03:58;;;;;;;1.83;0.85;;;20.20;49.80;;;;;;5110301;28;20064;-56
2023/01/14 04:06:25;;;;;;;2.70;0.10;;;20.20;50.00;;;;;;5110238;28;20455;-56
2023/01/14 04:08:52;;;;;;;0.63;0.10;;;20.20;50.00;;;;;;5106509;28;20497;-56
2023/01/14 04:11:20;;;;;;;3.42;0.10;;;20.20;50.10;;;;;;5109593;28;20040;-56
2023/01/14 04:16:31;;;;;;;1.05;0.10;;;20.20;50.40;;;;;;5109763;28;20260;-57
2023/01/14 04:18:59;;;;;;;1.77;0.10;;;20.20;50.50;;;;;;5109851;28;20043;-56
2023/01/14 04:21:26;;;;;;;1.95;0.20;;;20.10;50.70;;;;;;5109632;28;20615;-57
2023/01/14 04:23:53;;;;;;;3.38;0.10;;;20.20;50.90;;;;;;5108612;28;20071;-56
2023/01/14 04:26:20;;;;;;;1.27;0.10;;;20.20;51.10;;;;;;5107851;28;20102;-56
2023/01/14 04:28:47;;;;;;;5.03;0.47;;;20.10;51.10;;;;;;5107976;28;20035;-58
2023/01/14 04:31:14;;;;;;;1.05;0.25;;;20.20;51.30;;;;;;5107965;28;20048;-57
2023/01/14 04:33:42;;;;;;;2.80;0.10;;;20.10;51.40;;;;;;5108117;28;20050;-56
2023/01/14 04:36:10;;;;;;;3.25;0.30;;;20.10;51.60;;;;;;5107702;28;20079;-57
2023/01/14 04:38:37;;;;;;;3.58;0.38;;;20.20;51.80;;;;;;5107652;28;20066;-55
2023/01/14 04:41:05;;;;;;;3.53;0.38;;;20.10;51.90;;;;;;5107334;28;20051;-56
2023/01/14 04:43:31;;;;;;;5.88;0.50;;;20.20;51.90;;;;;;5108517;28;20039;-56
2023/01/14 04:45:58;;;;;;;4.32;0.13;;;20.10;51.80;;;;;;5107771;28;20463;-57
2023/01/14 04:48:26;;;;;;;1.50;0.17;;;20.10;51.90;;;;;;5109267;28;20499;-59
2023/01/14 04:50:53;;;;;;;6.43;0.47;;;20.10;52.00;;;;;;5109096;28;20048;-57
2023/01/14 04:53:23;;;;;;;2.30;0.10;;;20.10;51.90;;;;;;5108686;28;20034;-56
2023/01/14 04:55:55;;;;;;;3.85;0.85;;;20.10;52.00;;;;;;5108157;28;20044;-62
2023/01/14 04:58:22;;;;;;;5.80;0.10;;;20.10;52.00;;;;;;5108774;28;20074;-57
2023/01/14 05:00:50;;;;;;;7.47;0.57;;;20.10;52.10;;;;;;5108474;28;20050;-58
2023/01/14 05:03:18;;;;;;;4.18;1.08;;;20.10;52.10;;;;;;5108955;28;20047;-57
2023/01/14 05:05:46;;;;;;;4.03;0.40;;;20.10;52.20;;;;;;5108895;28;20532;-56
2023/01/14 05:08:14;;;;;;;2.97;0.55;;;20.10;52.30;;;;;;5108821;28;20130;-57
2023/01/14 05:10:43;;;;;;;5.53;0.55;;;20.10;52.40;;;;;;5108043;28;20031;-56
2023/01/14 05:13:11;;;;;;;5.90;0.22;;;20.10;52.50;;;;;;5108844;28;20048;-55
2023/01/14 05:15:39;;;;;;;7.35;1.35;;;20.10;52.50;;;;;;5105263;28;20051;-56
2023/01/14 05:18:07;;;;;;;1.55;0.10;;;20.10;52.50;;;;;;5108592;28;20043;-56
2023/01/14 05:20:35;;;;;;;2.38;0.43;;;20.10;52.50;;;;;;5108471;28;20585;-58
2023/01/14 05:23:04;;;;;;;4.90;0.20;;;20.10;52.50;;;;;;5108667;28;20508;-58
2023/01/14 05:25:34;;;;;;;6.28;0.57;;;20.10;52.40;;;;;;5107991;28;20038;-58
2023/01/14 05:28:04;;;;;;;2.35;0.20;;;20.10;52.40;;;;;;5108619;28;20114;-58
2023/01/14 05:30:31;;;;;;;2.92;0.10;;;20.10;52.40;;;;;;5108340;28;20035;-58
2023/01/14 05:32:58;;;;;;;1.35;0.10;;;20.10;52.40;;;;;;5108466;28;20158;-59
2023/01/14 05:35:25;;;;;;;2.50;0.30;;;20.10;52.50;;;;;;5086111;28;20546;-59
2023/01/14 05:37:53;;;;;;;2.00;0.13;;;20.00;52.50;;;;;;5092489;28;20031;-59
2023/01/14 05:40:21;;;;;;;2.78;0.30;;;20.10;52.60;;;;;;5107704;28;20071;-58
2023/01/14 05:45:41;;;;;;;0.90;0.10;;;20.00;52.60;;;;;;5108186;28;20134;-57
2023/01/14 05:48:09;;;;;;;3.40;0.55;;;20.00;52.60;;;;;;5107885;28;20050;-58
2023/01/14 05:50:37;;;;;;;4.28;0.30;;;20.00;52.60;;;;;;5108583;28;20044;-57
2023/01/14 05:53:04;;;;;;;7.95;0.50;;;20.00;52.60;;;;;;5107665;28;20065;-57
2023/01/14 05:55:31;;;;;;;4.70;0.20;;;20.00;52.70;;;;;;5107796;28;20047;-58
2023/01/14 05:57:59;;;;;;;6.35;0.30;;;20.00;52.70;;;;;;5107433;28;20059;-59
2023/01/14 06:08:43;;;;;;;4.60;0.30;;;20.00;53.40;;;;;;5059058;28;20072;-59
2023/01/14 06:11:10;;;;;;;5.82;1.00;;;20.00;53.40;;;;;;5063729;28;20119;-58
2023/01/14 06:13:37;;;;;;;1.73;0.52;;;20.00;52.90;;;;;;5063851;28;20052;-58
2023/01/14 06:16:06;;;;;;;4.82;0.50;;;20.00;52.90;;;;;;5064024;28;20424;-59
2023/01/14 06:18:41;;;;;;;3.63;1.05;;;20.00;52.90;;;;;;5064085;28;20059;-59
2023/01/14 06:21:10;;;;;;;5.53;1.17;;;20.00;53.00;;;;;;5063787;28;20128;-59
2023/01/14 06:23:38;;;;;;;4.15;0.50;;;20.00;53.10;;;;;;5043138;28;20051;-59
2023/01/14 06:26:08;;;;;;;2.47;0.32;;;20.00;53.20;;;;;;5043798;28;20053;-59
2023/01/14 06:28:36;;;;;;;7.60;0.35;;;20.00;53.20;;;;;;5053779;28;20135;-58
2023/01/14 06:31:07;;;;;;;2.47;0.25;;;20.00;53.20;;;;;;5063636;28;20060;-60
2023/01/14 06:33:36;;;;;;;1.95;0.28;;;20.00;53.20;;;;;;5063620;28;20585;-59
2023/01/14 06:36:03;;;;;;;2.20;0.28;;;20.00;53.20;;;;;;5063424;28;20057;-58
2023/01/14 06:38:30;;;;;;;2.15;0.20;;;20.00;53.30;;;;;;5063136;28;20080;-57
2023/01/14 06:40:59;;;;;;;4.18;0.28;;;20.00;53.30;;;;;;5094563;28;20052;-58
2023/01/14 06:43:26;;;;;;;1.33;0.10;;;20.00;53.40;;;;;;5106637;28;20043;-58
2023/01/14 06:45:54;;;;;;;5.10;0.43;;;20.00;53.50;;;;;;5106958;28;20109;-59
2023/01/14 06:48:21;;;;;;;2.90;0.15;;;20.00;53.50;;;;;;5106874;28;20040;-59
2023/01/14 06:50:51;;;;;;;3.20;0.10;;;20.00;53.60;;;;;;5106192;28;20035;-59
2023/01/14 06:53:18;;;;;;;2.53;0.30;;;20.00;53.70;;;;;;5106296;28;20043;-59
2023/01/14 06:55:45;;;;;;;3.42;0.30;;;20.00;53.70;;;;;;5106583;28;20042;-60
2023/01/14 06:58:12;;;;;;;3.50;0.95;;;20.00;54.30;;;;;;5106442;28;20039;-59
2023/01/14 07:00:39;;;;;;;2.90;0.68;;;20.00;53.60;;;;;;5088414;28;20407;-59
2023/01/14 07:03:07;;;;;;;2.70;0.77;;;20.00;53.60;;;;;;5106462;28;20473;-59
2023/01/14 07:05:33;;;;;;;3.67;0.13;;;20.00;53.60;;;;;;5106545;28;20035;-58
2023/01/14 07:08:02;;;;;;;4.25;0.30;;;20.00;53.60;;;;;;5102015;28;20044;-59
2023/01/14 07:10:29;;;;;;;2.40;0.30;;;20.00;53.60;;;;;;5106338;28;20051;-59
2023/01/14 07:12:56;;;;;;;4.30;0.20;;;20.00;53.60;;;;;;5106557;28;20468;-59
2023/01/14 07:15:23;;;;;;;2.17;0.10;;;20.00;53.60;;;;;;5106513;28;20039;-58
2023/01/14 07:17:50;;;;;;;3.55;0.30;;;20.00;53.60;;;;;;5106626;28;20088;-58
2023/01/14 07:20:18;;;;;;;1.77;0.10;;;19.90;53.60;;;;;;5106263;28;20912;-59
2023/01/14 07:22:45;;;;;;;3.45;0.20;;;19.90;53.60;;;;;;5106326;28;20068;-59
2023/01/14 07:25:13;;;;;;;1.73;0.05;;;20.00;53.70;;;;;;5106460;28;20513;-59
2023/01/14 07:27:40;;;;;;;1.23;0.65;;;20.00;53.70;;;;;;5106723;28;20093;-59
2023/01/14 07:30:09;;;;;;;4.70;0.40;;;19.90;53.60;;;;;;5106514;28;20046;-59
2023/01/14 07:32:36;;;;;;;1.25;0.10;;;19.90;53.60;;;;;;5106068;28;20060;-59
2023/01/14 07:35:03;;;;;;;2.70;1.00;;;19.90;53.60;;;;;;5106229;28;20062;-58
2023/01/14 07:37:30;;;;;;;1.65;0.10;;;20.00;53.70;;;;;;5106110;28;20071;-58
2023/01/14 07:39:57;;;;;;;2.47;0.10;;;19.90;53.70;;;;;;5106310;28;20039;-59
2023/01/14 07:42:26;;;;;;;2.75;0.38;;;20.00;53.80;;;;;;5106278;28;20043;-58
2023/01/14 07:44:53;;;;;;;4.00;0.98;;;19.90;53.80;;;;;;5106532;28;20385;-60
2023/01/14 07:47:20;;;;;;;5.13;0.20;;;19.90;53.80;;;;;;5106469;28;20072;-58
2023/01/14 07:49:47;;;;;;;2.10;0.10;;;19.90;53.80;;;;;;5106210;28;20055;-58
2023/01/14 07:52:14;;;;;;;1.13;0.30;;;19.90;53.80;;;;;;5106002;28;20051;-59
2023/01/14 07:54:42;;;;;;;4.60;0.20;;;20.00;53.90;;;;;;5106218;28;20604;-56
2023/01/14 07:57:11;;;;;;;0.82;0.10;;;19.90;53.80;;;;;;5106115;28;20525;-58
2023/01/14 07:59:40;;;;;;;1.98;0.10;;;19.90;53.80;;;;;;5105641;28;20040;-59
2023/01/14 08:02:11;;;;;;;1.08;0.30;;;19.90;53.90;;;;;;5106004;28;20073;-58
2023/01/14 08:04:38;;;;;;;3.13;0.10;;;20.00;54.00;;;;;;5102186;28;20031;-58
2023/01/14 08:07:06;;;;;;;2.13;0.10;;;19.90;54.00;;;;;;5105975;28;20132;-57
2023/01/14 08:09:34;;;;;;;2.30;0.25;;;19.90;54.00;;;;;;5105983;28;20415;-58
2023/01/14 08:12:01;;;;;;;1.13;0.10;;;19.90;54.10;;;;;;5105787;28;20039;-54
2023/01/14 08:14:28;;;;;;;3.53;0.10;;;20.00;54.20;;;;;;5106152;28;20047;-59
2023/01/14 08:16:57;;;;;;;2.75;0.43;;;19.90;54.20;;;;;;5106712;28;20079;-57
2023/01/14 08:19:24;;;;;;;0.98;0.20;;;19.90;54.20;;;;;;5106257;28;20056;-58
2023/01/14 08:21:51;;;;;;;0.93;0.10;;;19.90;54.10;;;;;;5109783;28;20415;-57
2023/01/14 08:24:18;;;;;;;2.47;0.20;;;19.90;54.10;;;;;;5109483;28;20069;-57
2023/01/14 08:26:45;;;;;;;3.53;0.10;;;19.90;54.10;;;;;;5109556;28;20570;-59
2023/01/14 08:29:14;;;;;;;1.92;0.63;;;19.90;54.20;;;;;;5109451;28;20126;-58
2023/01/14 08:31:41;;;;;;;3.25;0.65;;;19.90;54.90;;;;;;5109357;28;20504;-58
2023/01/14 08:34:12;;;;;;;2.70;0.10;;;19.90;54.30;;;;;;5108999;28;20224;-58
2023/01/14 08:36:39;;;;;;;3.40;0.10;;;19.90;54.40;;;;;;5109119;28;20054;-58
2023/01/14 08:39:06;;;;;;;5.70;1.10;;;19.90;54.90;;;;;;5109335;28;20043;-58
2023/01/14 08:41:34;;;;;;;0.95;0.10;;;19.90;54.40;;;;;;5073586;28;20047;-59
2023/01/14 08:44:01;;;;;;;3.25;0.00;;;19.90;54.40;;;;;;5109316;28;20051;-58
2023/01/14 08:46:28;;;;;;;4.53;1.10;;;20.00;54.50;;;;;;5109057;28;20134;-58
2023/01/14 08:48:55;;;;;;;1.75;0.10;;;19.90;54.50;;;;;;5096833;28;20036;-58
2023/01/14 08:51:26;;;;;;;1.58;0.10;;;20.00;54.60;;;;;;5088608;28;20044;-58
2023/01/14 08:53:54;;;;;;;1.63;0.10;;;19.90;54.50;;;;;;5077330;28;20044;-58
2023/01/14 08:56:22;;;;;;;2.30;0.15;;;20.00;54.50;;;;;;5109110;28;20043;-57
2023/01/14 08:58:49;;;;;;;0.70;0.10;;;19.90;54.50;;;;;;5108893;28;20051;-59
2023/01/14 09:01:16;;;;;;;5.57;0.30;;;19.90;54.40;;;;;;5108216;28;20044;-58
2023/01/14 09:03:45;;;;;;;2.22;0.38;;;20.00;55.00;;;;;;5108958;28;20135;-58
2023/01/14 09:06:14;;;;;;;1.33;0.10;;;20.00;54.40;;;;;;5108804;28;20040;-58
2023/01/14 09:17:06;;;;;;;2.95;0.30;;;19.90;54.10;;;;;;5107863;28;20527;-58
2023/01/14 09:19:36;;;;;;;0.80;0.30;;;19.90;54.10;;;;;;5108336;28;20089;-57
2023/01/14 09:22:06;;;;;;;2.88;0.52;;;19.90;54.20;;;;;;5108321;28;20043;-58
2023/01/14 09:24:35;;;;;;;1.92;0.10;;;20.00;54.20;;;;;;5108348;28;20135;-58
2023/01/14 09:27:02;;;;;;;2.33;0.15;;;19.90;54.20;;;;;;5108483;28;20044;-55
2023/01/14 09:29:29;;;;;;;2.80;0.10;;;20.00;54.90;;;;;;5108154;28;20699;-56
2023/01/14 09:31:56;;;;;;;3.28;0.10;;;20.00;54.30;;;;;;5106873;28;20039;-57
2023/01/14 09:34:23;;;;;;;0.82;0.10;;;20.00;54.30;;;;;;5092263;28;20115;-62
2023/01/14 09:36:50;;;;;;;8.88;0.43;;;20.00;54.30;;;;;;5087179;28;20123;-61
2023/01/14 09:39:17;;;;;;;2.30;0.50;;;20.00;54.40;;;;;;5103666;28;20039;-62
2023/01/14 09:41:52;;;;;;;0.55;0.10;;;20.00;54.30;;;;;;5106642;28;20407;-62
2023/01/14 09:44:20;;;;;;;2.00;0.00;;;20.10;54.50;;;;;;5107508;28;20050;-65
2023/01/14 09:46:49;;;;;;;0.73;0.10;;;20.10;54.50;;;;;;5107026;28;20044;-72
2023/01/14 09:49:19;;;;;;;0.73;0.10;;;20.10;54.50;;;;;;5071085;28;20125;-72
2023/01/14 09:52:09;;;;;;;3.70;0.40;;;20.20;54.70;;;;;;5088046;28;20097;-73
2023/01/14 09:54:45;;;;;;;1.55;0.10;;;20.20;54.70;;;;;;5101576;28;20047;-69
2023/01/14 09:57:21;;;;;;;2.58;0.20;;;20.20;54.60;;;;;;5110545;28;20051;-71
2023/01/14 09:59:58;;;;;;;4.82;0.10;;;20.30;54.60;;;;;;5108072;28;20047;-61
2023/01/14 10:02:34;;;;;;;1.17;0.05;;;20.30;54.50;;;;;;5107001;28;20061;-66
2023/01/14 10:05:18;;;;;;;2.13;0.10;;;20.40;54.50;;;;;;5103814;28;20035;-66
2023/01/14 10:07:45;;;;;;;0.10;0.10;;;20.40;54.40;;;;;;5102864;28;20126;-64
2023/01/14 10:10:24;;;;;;;0.32;0.10;;;20.40;54.30;;;;;;5106830;28;20032;-63
2023/01/14 10:12:55;;;;;;;1.15;0.10;;;20.50;54.30;;;;;;5107152;28;20043;-61
2023/01/14 10:15:35;;;;;;;0.50;0.10;;;20.50;54.20;;;;;;5107139;28;20067;-49
2023/01/14 10:18:10;;;;;;;2.85;0.52;;;20.60;53.30;;;;;;5107072;28;20055;-59
2023/01/14 10:20:49;;;;;;;1.52;0.10;;;20.40;52.20;;;;;;5107544;28;20051;-64
2023/01/14 10:23:19;;;;;;;0.28;0.10;;;20.20;51.60;;;;;;5107734;28;20082;-60
2023/01/14 10:25:49;;;;;;;2.60;0.30;;;19.80;51.50;;;;;;5101422;28;20244;-59
2023/01/14 10:28:23;;;;;;;0.20;0.10;;;19.50;52.00;;;;;;5086740;28;20067;-60
2023/01/14 10:30:52;;;;;;;1.08;0.10;;;19.10;52.50;;;;;;5086211;28;20093;-63
2023/01/14 10:33:21;;;;;;;5.18;0.10;;;18.80;53.10;;;;;;5086531;28;20155;-63
2023/01/14 10:35:53;;;;;;;3.35;0.00;;;18.50;53.70;;;;;;5086809;28;20052;-61
2023/01/14 10:38:23;;;;;;;2.15;0.15;;;18.20;54.40;;;;;;5094837;28;20047;-59
2023/01/14 10:40:53;;;;;;;1.80;0.10;;;18.00;55.00;;;;;;5089044;28;20502;-57
2023/01/14 10:43:29;;;;;;;1.42;0.00;;;17.80;55.50;;;;;;5101936;28;20048;-58
2023/01/14 10:45:56;;;;;;;3.85;0.10;;;17.70;56.10;;;;;;5106421;28;20124;-64
2023/01/14 10:48:25;;;;;;;1.08;0.00;;;17.50;56.60;;;;;;5106920;28;20733;-55
2023/01/14 10:50:52;;;;;;;0.73;0.43;;;17.50;57.10;;;;;;5106767;28;20047;-72
2023/01/14 10:53:22;;;;;;;1.38;0.10;;;17.40;57.20;;;;;;5106195;28;20035;-66
2023/01/14 10:55:56;;;;;;;0.57;0.10;;;17.30;57.60;;;;;;5106965;28;20122;-66
2023/01/14 10:58:31;;;;;;;2.08;0.90;;;17.10;57.80;;;;;;5106636;28;20043;-69
2023/01/14 11:01:05;;;;;;;0.30;0.00;;;17.00;58.30;;;;;;5106426;28;20047;-69
2023/01/14 11:03:34;;;;;;;1.00;0.10;;;16.80;58.70;;;;;;5102984;28;20889;-62
2023/01/14 11:06:05;;;;;;;5.47;0.20;;;16.70;59.00;;;;;;5106974;28;20082;-67
2023/01/14 11:08:37;;;;;;;0.60;0.00;;;16.60;59.40;;;;;;5106039;28;20104;-68
2023/01/14 11:11:08;;;;;;;1.70;0.10;;;16.60;59.90;;;;;;5106477;28;20092;-63
2023/01/14 11:13:41;;;;;;;0.85;0.60;;;16.50;60.10;;;;;;5106490;28;20126;-69
2023/01/14 11:16:28;;;;;;;1.80;0.10;;;16.40;60.40;;;;;;5105598;28;20067;-75
2023/01/14 11:18:57;;;;;;;;;;;16.40;60.60;;;;;;5105948;28;20525;-56
2023/01/14 11:21:25;;;;;;;3.40;0.10;;;16.20;60.50;;;;;;5103348;28;19938;-61
2023/01/14 11:23:57;;;;;;;4.03;0.32;;;16.20;61.10;;;;;;5105654;28;20076;-59
2023/01/14 11:26:27;;;;;;;0.70;0.10;;;16.10;61.30;;;;;;5105247;28;20093;-59
2023/01/14 11:29:03;;;;;;;0.30;0.08;;;16.00;61.50;;;;;;5106432;28;20097;-58
2023/01/14 11:31:32;;;;;;;0.98;0.13;;;16.10;61.80;;;;;;5106436;28;20075;-75
2023/01/14 11:34:00;;;;;;;2.38;0.10;;;16.00;61.90;;;;;;5097888;28;20415;-71
2023/01/14 11:36:31;;;;;;;1.70;0.10;;;15.90;62.00;;;;;;5085746;28;20048;-56
2023/01/14 11:39:00;;;;;;;1.10;0.00;;;15.90;62.20;;;;;;5099320;28;20047;-67
2023/01/14 11:41:39;;;;;;;0.95;0.00;;;15.90;62.40;;;;;;5102247;28;20713;-72
2023/01/14 11:44:22;;;;;;;0.40;0.00;;;15.90;62.60;;;;;;5106203;28;20144;-61
2023/01/14 11:47:12;;;;;;;1.20;0.10;;;15.90;62.80;;;;;;5105822;28;20530;-60
2023/01/14 11:49:40;;;;;;;2.40;0.63;;;15.80;63.00;;;;;;5087472;28;20508;-53
2023/01/14 11:52:21;;;;;;;0.88;0.20;;;15.80;63.20;;;;;;5105967;28;20050;-53
2023/01/14 11:54:51;;;;;;;1.02;0.30;;;15.90;63.40;;;;;;5091795;28;20879;-52
2023/01/14 11:57:21;;;;;;;3.83;0.20;;;15.80;63.30;;;;;;5093750;28;20839;-59
2023/01/14 11:59:51;;;;;;;0.80;0.13;;;15.90;63.40;;;;;;5109582;28;20067;-59
2023/01/14 12:02:24;;;;;;;1.48;0.38;;;15.90;63.40;;;;;;5109623;28;20128;-50
2023/01/14 12:04:57;;;;;;;0.65;0.00;;;15.90;63.40;;;;;;5109379;28;20074;-59
2023/01/14 12:07:30;;;;;;;1.00;0.10;;;15.90;63.50;;;;;;5109785;28;20070;-57
2023/01/14 12:10:00;;;;;;;5.47;0.10;;;15.90;63.90;;;;;;5097775;28;20095;-61
2023/01/14 12:16:48;;;;;;;2.17;0.10;;;16.10;64.20;;;;;;5089357;28;20059;-55
2023/01/14 12:18:32;;;;;;;0.45;0.10;;;16.60;63.90;;;;;;5089247;28;20043;-69
2023/01/14 12:21:03;;;;;;;4.55;0.10;;;16.90;63.50;;;;;;5089196;28;20151;-64
2023/01/14 12:23:34;;;;;;;2.15;0.10;;;17.10;63.10;;;;;;5088927;28;20052;-63
2023/01/14 12:26:07;;;;;;;0.40;0.10;;;17.30;62.80;;;;;;5088427;28;20123;-67
2023/01/14 12:28:40;;;;;;;4.38;0.30;;;17.50;62.40;;;;;;5104339;28;20082;-71
2023/01/14 12:31:14;;;;;;;0.08;0.08;;;17.70;62.00;;;;;;5108299;28;20048;-55
2023/01/14 12:33:45;;;;;;;0.17;0.17;;;17.80;61.70;;;;;;5104392;28;20044;-54
2023/01/14 12:36:19;;;;;;;4.40;0.10;;;18.00;61.40;;;;;;5088260;28;20497;-58
2023/01/14 12:47:28;;;;;;;0.10;0.10;;;18.50;60.20;;;;;;5088860;28;20102;-64
2023/01/14 12:49:58;;;;;;;0.43;0.20;;;18.60;60.00;;;;;;5096159;28;20036;-62
2023/01/14 12:52:30;;;;;;;0.20;0.10;;;18.80;59.70;;;;;;5109823;28;20583;-74
2023/01/14 12:54:59;;;;;;;0.22;0.22;;;18.90;59.50;;;;;;5109221;28;20040;-51
2023/01/14 12:57:27;;;;;;;1.55;0.20;;;19.00;59.20;;;;;;5108997;28;20462;-60
2023/01/14 13:00:00;;;;;;;1.30;0.10;;;19.10;59.00;;;;;;5109036;28;20067;-62
2023/01/14 13:02:34;;;;;;;0.85;0.43;;;19.20;58.80;;;;;;5121057;27;20051;-65
2023/01/14 13:05:05;;;;;;;3.20;0.15;;;19.30;58.60;;;;;;5109541;28;20043;-63
2023/01/14 13:07:36;;;;;;;9.32;0.10;;;19.40;58.50;;;;;;5107504;28;20163;-63
2023/01/14 13:10:07;;;;;;;0.35;0.10;;;19.50;58.40;;;;;;5108433;28;20315;-63
2023/01/14 13:12:36;;;;;;;1.15;0.10;;;19.50;58.20;;;;;;5108122;28;20044;-65
2023/01/14 13:15:07;;;;;;;0.25;0.10;;;19.60;58.10;;;;;;5088415;28;20036;-54
2023/01/14 13:17:37;;;;;;;7.32;0.20;;;19.70;58.00;;;;;;5107374;28;20047;-56
2023/01/14 13:20:07;;;;;;;0.90;0.10;;;19.80;57.80;;;;;;5108352;28;20044;-59
2023/01/14 13:22:48;;;;;;;0.52;0.10;;;19.90;57.70;;;;;;5108071;28;20051;-58
2023/01/14 13:25:34;;;;;;;0.10;0.10;;;20.00;57.60;;;;;;5108331;28;20043;-66
2023/01/14 13:28:02;;;;;;;1.25;0.10;;;20.00;57.20;;;;;;5107988;28;20043;-60
2023/01/14 13:30:42;;;;;;;1.70;0.50;;;20.00;57.20;;;;;;5108300;28;20036;-62
2023/01/14 13:33:20;;;;;;;2.00;0.15;;;20.10;57.00;;;;;;5107338;28;20075;-69
2023/01/14 13:36:21;;;;;;;1.65;0.10;;;20.20;57.00;;;;;;5088044;28;20048;-60
2023/01/14 13:39:00;;;;;;;7.47;0.20;;;20.20;56.70;;;;;;5094799;28;20071;-56